sensor_id;sensor_type;location;lat;lon;timestamp;temperature;humidity
18624;DHT22;9441;51.420;7.036;2022-10-16T00:00:38;15.70;99.90
18624;DHT22;9441;51.420;7.036;2022-10-16T00:01:40;15.70;99.90
18624;DHT22;9441;51.420;7.036;2022-10-16T00:02:42;15.70;99.90
18624;DHT22;9441;51.420;7.036;2022-10-16T00:03:45;15.70;99.90
18624;DHT22;9441;51.420;7.036;2022-10-16T00:04:47;15.70;99.90
18624;DHT22;9441;51.420;7.036;2022-10-16T00:05:48;15.60;99.90
18624;DHT22;9441;51.420;7.036;2022-10-16T00:06:50;15.70;99.90
18624;DHT22;9441;51.420;7.036;2022-10-16T00:08:03;15.70;99.90
18624;DHT22;9441;51.420;7.036;2022-10-16T00:09:10;15.70;99.90
18624;DHT22;9441;51.420;7.036;2022-10-16T00:10:12;15.70;99.90
18624;DHT22;9441;51.420;7.036;2022-10-16T00:11:15;15.70;99.90
18624;DHT22;9441;51.420;7.036;2022-10-16T00:12:17;15.70;99.90
18624;DHT22;9441;51.420;7.036;2022-10-16T00:13:18;15.70;99.90
18624;DHT22;9441;51.420;7.036;2022-10-16T00:14:21;15.60;99.90
18624;DHT22;9441;51.420;7.036;2022-10-16T00:15:22;15.60;99.90
18624;DHT22;9441;51.420;7.036;2022-10-16T00:16:25;15.70;99.90
18624;DHT22;9441;51.420;7.036;2022-10-16T00:17:27;15.80;99.90
18624;DHT22;9441;51.420;7.036;2022-10-16T00:18:29;15.80;99.90
18624;DHT22;9441;51.420;7.036;2022-10-16T00:19:32;15.80;99.90
18624;DHT22;9441;51.420;7.036;2022-10-16T00:20:34;15.80;99.90
18624;DHT22;9441;51.420;7.036;2022-10-16T00:21:54;15.70;99.90
18624;DHT22;9441;51.420;7.036;2022-10-16T00:23:15;15.70;99.90
18624;DHT22;9441;51.420;7.036;2022-10-16T00:24:16;15.80;99.90
18624;DHT22;9441;51.420;7.036;2022-10-16T00:25:18;15.80;99.90
18624;DHT22;9441;51.420;7.036;2022-10-16T00:26:19;15.70;99.90
18624;DHT22;9441;51.420;7.036;2022-10-16T00:27:21;15.80;99.90
18624;DHT22;9441;51.420;7.036;2022-10-16T00:28:22;15.80;99.90
18624;DHT22;9441;51.420;7.036;2022-10-16T00:29:25;15.70;99.90
18624;DHT22;9441;51.420;7.036;2022-10-16T00:30:26;15.70;99.90
18624;DHT22;9441;51.420;7.036;2022-10-16T00:31:29;15.70;99.90
18624;DHT22;9441;51.420;7.036;2022-10-16T00:32:30;15.80;99.90
18624;DHT22;9441;51.420;7.036;2022-10-16T00:33:32;15.80;99.90
18624;DHT22;9441;51.420;7.036;2022-10-16T00:34:35;15.80;99.90
18624;DHT22;9441;51.420;7.036;2022-10-16T00:35:37;15.80;99.90
18624;DHT22;9441;51.420;7.036;2022-10-16T00:36:38;15.70;99.90
18624;DHT22;9441;51.420;7.036;2022-10-16T00:37:40;15.60;99.90
18624;DHT22;9441;51.420;7.036;2022-10-16T00:38:41;15.60;99.90
18624;DHT22;9441;51.420;7.036;2022-10-16T00:39:43;15.60;99.90
18624;DHT22;9441;51.420;7.036;2022-10-16T00:40:44;15.60;99.90
18624;DHT22;9441;51.420;7.036;2022-10-16T00:41:46;15.60;99.90
18624;DHT22;9441;51.420;7.036;2022-10-16T00:42:47;15.60;99.90
18624;DHT22;9441;51.420;7.036;2022-10-16T00:43:51;15.60;99.90
18624;DHT22;9441;51.420;7.036;2022-10-16T00:44:54;15.40;99.90
18624;DHT22;9441;51.420;7.036;2022-10-16T00:45:57;15.60;99.90
18624;DHT22;9441;51.420;7.036;2022-10-16T00:46:58;15.60;99.90
18624;DHT22;9441;51.420;7.036;2022-10-16T00:48:00;15.70;99.90
18624;DHT22;9441;51.420;7.036;2022-10-16T00:49:04;15.60;99.90
18624;DHT22;9441;51.420;7.036;2022-10-16T00:50:09;15.60;99.90
18624;DHT22;9441;51.420;7.036;2022-10-16T00:51:12;15.60;99.90
18624;DHT22;9441;51.420;7.036;2022-10-16T00:52:15;15.40;99.90
18624;DHT22;9441;51.420;7.036;2022-10-16T00:53:17;15.50;99.90
18624;DHT22;9441;51.420;7.036;2022-10-16T00:54:22;15.50;99.90
18624;DHT22;9441;51.420;7.036;2022-10-16T00:55:24;15.50;99.90
18624;DHT22;9441;51.420;7.036;2022-10-16T00:56:26;15.40;99.90
18624;DHT22;9441;51.420;7.036;2022-10-16T00:57:27;15.40;99.90
18624;DHT22;9441;51.420;7.036;2022-10-16T00:58:29;15.40;99.90
18624;DHT22;9441;51.420;7.036;2022-10-16T00:59:33;15.40;99.90
18624;DHT22;9441;51.420;7.036;2022-10-16T01:00:35;15.40;99.90
18624;DHT22;9441;51.420;7.036;2022-10-16T01:01:36;15.50;99.90
18624;DHT22;9441;51.420;7.036;2022-10-16T01:02:38;15.40;99.90
18624;DHT22;9441;51.420;7.036;2022-10-16T01:03:40;15.40;99.90
18624;DHT22;9441;51.420;7.036;2022-10-16T01:04:44;15.40;99.90
18624;DHT22;9441;51.420;7.036;2022-10-16T01:05:54;15.30;99.90
18624;DHT22;9441;51.420;7.036;2022-10-16T01:07:05;15.40;99.90
18624;DHT22;9441;51.420;7.036;2022-10-16T01:08:13;15.40;99.90
18624;DHT22;9441;51.420;7.036;2022-10-16T01:09:20;15.40;99.90
18624;DHT22;9441;51.420;7.036;2022-10-16T01:10:27;15.40;99.90
18624;DHT22;9441;51.420;7.036;2022-10-16T01:11:35;15.40;99.90
18624;DHT22;9441;51.420;7.036;2022-10-16T01:12:41;15.40;99.90
18624;DHT22;9441;51.420;7.036;2022-10-16T01:13:48;15.30;99.90
18624;DHT22;9441;51.420;7.036;2022-10-16T01:14:54;15.30;99.90
18624;DHT22;9441;51.420;7.036;2022-10-16T01:16:03;15.30;99.90
18624;DHT22;9441;51.420;7.036;2022-10-16T01:17:11;15.30;99.90
18624;DHT22;9441;51.420;7.036;2022-10-16T01:18:17;15.30;99.90
18624;DHT22;9441;51.420;7.036;2022-10-16T01:19:28;15.30;99.90
18624;DHT22;9441;51.420;7.036;2022-10-16T01:20:39;15.20;99.90
18624;DHT22;9441;51.420;7.036;2022-10-16T01:21:47;15.00;99.90
18624;DHT22;9441;51.420;7.036;2022-10-16T01:23:00;15.10;99.90
18624;DHT22;9441;51.420;7.036;2022-10-16T01:24:08;15.10;99.90
18624;DHT22;9441;51.420;7.036;2022-10-16T01:25:18;15.10;99.90
18624;DHT22;9441;51.420;7.036;2022-10-16T01:26:34;15.10;99.90
18624;DHT22;9441;51.420;7.036;2022-10-16T01:27:40;15.00;99.90
18624;DHT22;9441;51.420;7.036;2022-10-16T01:28:49;15.00;99.90
18624;DHT22;9441;51.420;7.036;2022-10-16T01:29:54;15.10;99.90
18624;DHT22;9441;51.420;7.036;2022-10-16T01:30:58;15.20;99.90
18624;DHT22;9441;51.420;7.036;2022-10-16T01:32:08;15.20;99.90
18624;DHT22;9441;51.420;7.036;2022-10-16T01:33:15;15.10;99.90
18624;DHT22;9441;51.420;7.036;2022-10-16T01:34:22;15.20;99.90
18624;DHT22;9441;51.420;7.036;2022-10-16T01:35:27;15.20;99.90
18624;DHT22;9441;51.420;7.036;2022-10-16T01:36:37;15.20;99.90
18624;DHT22;9441;51.420;7.036;2022-10-16T01:37:41;15.20;99.90
18624;DHT22;9441;51.420;7.036;2022-10-16T01:38:48;15.30;99.90
18624;DHT22;9441;51.420;7.036;2022-10-16T01:39:51;15.30;99.90
18624;DHT22;9441;51.420;7.036;2022-10-16T01:40:59;15.30;99.90
18624;DHT22;9441;51.420;7.036;2022-10-16T01:42:04;15.20;99.90
18624;DHT22;9441;51.420;7.036;2022-10-16T01:43:13;15.10;99.90
18624;DHT22;9441;51.420;7.036;2022-10-16T01:44:19;15.10;99.90
18624;DHT22;9441;51.420;7.036;2022-10-16T01:45:23;15.20;99.90
18624;DHT22;9441;51.420;7.036;2022-10-16T01:46:24;15.10;99.90
18624;DHT22;9441;51.420;7.036;2022-10-16T01:47:30;15.00;99.90
18624;DHT22;9441;51.420;7.036;2022-10-16T01:48:33;15.00;99.90
18624;DHT22;9441;51.420;7.036;2022-10-16T01:49:38;15.10;99.90
18624;DHT22;9441;51.420;7.036;2022-10-16T01:50:41;15.10;99.90
18624;DHT22;9441;51.420;7.036;2022-10-16T01:51:46;15.20;99.90
18624;DHT22;9441;51.420;7.036;2022-10-16T01:52:51;15.20;99.90
18624;DHT22;9441;51.420;7.036;2022-10-16T01:53:56;15.20;99.90
18624;DHT22;9441;51.420;7.036;2022-10-16T01:55:00;15.20;99.90
18624;DHT22;9441;51.420;7.036;2022-10-16T01:56:08;15.30;99.90
18624;DHT22;9441;51.420;7.036;2022-10-16T01:57:10;15.30;99.90
18624;DHT22;9441;51.420;7.036;2022-10-16T01:58:15;15.30;99.90
18624;DHT22;9441;51.420;7.036;2022-10-16T01:59:19;15.30;99.90
18624;DHT22;9441;51.420;7.036;2022-10-16T02:00:23;15.30;99.90
18624;DHT22;9441;51.420;7.036;2022-10-16T02:01:26;15.30;99.90
18624;DHT22;9441;51.420;7.036;2022-10-16T02:02:30;15.20;99.90
18624;DHT22;9441;51.420;7.036;2022-10-16T02:03:32;15.20;99.90
18624;DHT22;9441;51.420;7.036;2022-10-16T02:04:37;15.20;99.90
18624;DHT22;9441;51.420;7.036;2022-10-16T02:05:41;15.20;99.90
18624;DHT22;9441;51.420;7.036;2022-10-16T02:06:44;15.30;99.90
18624;DHT22;9441;51.420;7.036;2022-10-16T02:07:45;15.20;99.90
18624;DHT22;9441;51.420;7.036;2022-10-16T02:08:47;15.20;99.90
18624;DHT22;9441;51.420;7.036;2022-10-16T02:09:48;15.20;99.90
18624;DHT22;9441;51.420;7.036;2022-10-16T02:10:50;15.10;99.90
18624;DHT22;9441;51.420;7.036;2022-10-16T02:11:54;15.20;99.90
18624;DHT22;9441;51.420;7.036;2022-10-16T02:13:01;15.10;99.90
18624;DHT22;9441;51.420;7.036;2022-10-16T02:14:05;15.30;99.90
18624;DHT22;9441;51.420;7.036;2022-10-16T02:15:08;15.30;99.90
18624;DHT22;9441;51.420;7.036;2022-10-16T02:16:10;15.30;99.90
18624;DHT22;9441;51.420;7.036;2022-10-16T02:17:14;15.40;99.90
18624;DHT22;9441;51.420;7.036;2022-10-16T02:18:37;15.30;99.90
18624;DHT22;9441;51.420;7.036;2022-10-16T02:20:37;15.40;99.90
18624;DHT22;9441;51.420;7.036;2022-10-16T02:22:32;15.30;99.90
18624;DHT22;9441;51.420;7.036;2022-10-16T02:23:51;15.40;99.90
18624;DHT22;9441;51.420;7.036;2022-10-16T02:24:58;15.40;99.90
18624;DHT22;9441;51.420;7.036;2022-10-16T02:26:03;15.40;99.90
18624;DHT22;9441;51.420;7.036;2022-10-16T02:27:10;15.30;99.90
18624;DHT22;9441;51.420;7.036;2022-10-16T02:28:16;15.30;99.90
18624;DHT22;9441;51.420;7.036;2022-10-16T02:29:23;15.30;99.90
18624;DHT22;9441;51.420;7.036;2022-10-16T02:30:30;15.30;99.90
18624;DHT22;9441;51.420;7.036;2022-10-16T02:31:35;15.20;99.90
18624;DHT22;9441;51.420;7.036;2022-10-16T02:32:42;15.30;99.90
18624;DHT22;9441;51.420;7.036;2022-10-16T02:33:46;15.30;99.90
18624;DHT22;9441;51.420;7.036;2022-10-16T02:34:49;15.20;99.90
18624;DHT22;9441;51.420;7.036;2022-10-16T02:35:51;15.20;99.90
18624;DHT22;9441;51.420;7.036;2022-10-16T02:36:54;15.20;99.90
18624;DHT22;9441;51.420;7.036;2022-10-16T02:37:55;15.30;99.90
18624;DHT22;9441;51.420;7.036;2022-10-16T02:38:58;15.30;99.90
18624;DHT22;9441;51.420;7.036;2022-10-16T02:40:01;15.20;99.90
18624;DHT22;9441;51.420;7.036;2022-10-16T02:41:04;15.30;99.90
18624;DHT22;9441;51.420;7.036;2022-10-16T02:42:09;15.30;99.90
18624;DHT22;9441;51.420;7.036;2022-10-16T02:43:11;15.30;99.90
18624;DHT22;9441;51.420;7.036;2022-10-16T02:44:13;15.30;99.90
18624;DHT22;9441;51.420;7.036;2022-10-16T02:45:16;15.30;99.90
18624;DHT22;9441;51.420;7.036;2022-10-16T02:46:18;15.30;99.90
18624;DHT22;9441;51.420;7.036;2022-10-16T02:47:20;15.30;99.90
18624;DHT22;9441;51.420;7.036;2022-10-16T02:48:21;15.30;99.90
18624;DHT22;9441;51.420;7.036;2022-10-16T02:49:23;15.30;99.90
18624;DHT22;9441;51.420;7.036;2022-10-16T02:50:24;15.20;99.90
18624;DHT22;9441;51.420;7.036;2022-10-16T02:51:26;15.30;99.90
18624;DHT22;9441;51.420;7.036;2022-10-16T02:52:27;15.30;99.90
18624;DHT22;9441;51.420;7.036;2022-10-16T02:53:29;15.30;99.90
18624;DHT22;9441;51.420;7.036;2022-10-16T02:54:30;15.30;99.90
18624;DHT22;9441;51.420;7.036;2022-10-16T02:55:32;15.30;99.90
18624;DHT22;9441;51.420;7.036;2022-10-16T02:56:33;15.30;99.90
18624;DHT22;9441;51.420;7.036;2022-10-16T02:57:35;15.30;99.90
18624;DHT22;9441;51.420;7.036;2022-10-16T02:58:37;15.30;99.90
18624;DHT22;9441;51.420;7.036;2022-10-16T02:59:39;15.30;99.90
18624;DHT22;9441;51.420;7.036;2022-10-16T03:00:42;15.30;99.90
18624;DHT22;9441;51.420;7.036;2022-10-16T03:01:44;15.30;99.90
18624;DHT22;9441;51.420;7.036;2022-10-16T03:02:45;15.30;99.90
18624;DHT22;9441;51.420;7.036;2022-10-16T03:03:47;15.30;99.90
18624;DHT22;9441;51.420;7.036;2022-10-16T03:04:48;15.30;99.90
18624;DHT22;9441;51.420;7.036;2022-10-16T03:05:50;15.30;99.90
18624;DHT22;9441;51.420;7.036;2022-10-16T03:06:51;15.20;99.90
18624;DHT22;9441;51.420;7.036;2022-10-16T03:07:53;15.20;99.90
18624;DHT22;9441;51.420;7.036;2022-10-16T03:08:54;15.10;99.90
18624;DHT22;9441;51.420;7.036;2022-10-16T03:09:56;15.10;99.90
18624;DHT22;9441;51.420;7.036;2022-10-16T03:10:57;15.10;99.90
18624;DHT22;9441;51.420;7.036;2022-10-16T03:12:02;15.10;99.90
18624;DHT22;9441;51.420;7.036;2022-10-16T03:13:04;15.10;99.90
18624;DHT22;9441;51.420;7.036;2022-10-16T03:14:06;15.10;99.90
18624;DHT22;9441;51.420;7.036;2022-10-16T03:15:08;15.10;99.90
18624;DHT22;9441;51.420;7.036;2022-10-16T03:16:11;15.10;99.90
18624;DHT22;9441;51.420;7.036;2022-10-16T03:17:12;15.10;99.90
18624;DHT22;9441;51.420;7.036;2022-10-16T03:18:17;15.10;99.90
18624;DHT22;9441;51.420;7.036;2022-10-16T03:19:18;15.10;99.90
18624;DHT22;9441;51.420;7.036;2022-10-16T03:20:20;15.00;99.90
18624;DHT22;9441;51.420;7.036;2022-10-16T03:21:21;15.00;99.90
18624;DHT22;9441;51.420;7.036;2022-10-16T03:22:23;15.00;99.90
18624;DHT22;9441;51.420;7.036;2022-10-16T03:23:24;15.00;99.90
18624;DHT22;9441;51.420;7.036;2022-10-16T03:24:27;15.00;99.90
18624;DHT22;9441;51.420;7.036;2022-10-16T03:25:28;15.00;99.90
18624;DHT22;9441;51.420;7.036;2022-10-16T03:26:30;15.00;99.90
18624;DHT22;9441;51.420;7.036;2022-10-16T03:27:31;15.00;99.90
18624;DHT22;9441;51.420;7.036;2022-10-16T03:28:33;15.00;99.90
18624;DHT22;9441;51.420;7.036;2022-10-16T03:29:34;15.00;99.90
18624;DHT22;9441;51.420;7.036;2022-10-16T03:30:36;15.00;99.90
18624;DHT22;9441;51.420;7.036;2022-10-16T03:31:38;15.00;99.90
18624;DHT22;9441;51.420;7.036;2022-10-16T03:32:40;15.00;99.90
18624;DHT22;9441;51.420;7.036;2022-10-16T03:33:41;15.00;99.90
18624;DHT22;9441;51.420;7.036;2022-10-16T03:34:43;15.00;99.90
18624;DHT22;9441;51.420;7.036;2022-10-16T03:35:51;15.00;99.90
18624;DHT22;9441;51.420;7.036;2022-10-16T03:36:53;14.90;99.90
18624;DHT22;9441;51.420;7.036;2022-10-16T03:37:55;14.90;99.90
18624;DHT22;9441;51.420;7.036;2022-10-16T03:38:57;14.90;99.90
18624;DHT22;9441;51.420;7.036;2022-10-16T03:39:59;14.90;99.90
18624;DHT22;9441;51.420;7.036;2022-10-16T03:41:00;14.90;99.90
18624;DHT22;9441;51.420;7.036;2022-10-16T03:42:02;14.90;99.90
18624;DHT22;9441;51.420;7.036;2022-10-16T03:43:03;14.90;99.90
18624;DHT22;9441;51.420;7.036;2022-10-16T03:44:05;14.90;99.90
18624;DHT22;9441;51.420;7.036;2022-10-16T03:45:07;14.90;99.90
18624;DHT22;9441;51.420;7.036;2022-10-16T03:46:09;14.90;99.90
18624;DHT22;9441;51.420;7.036;2022-10-16T03:47:11;14.90;99.90
18624;DHT22;9441;51.420;7.036;2022-10-16T03:48:13;14.80;99.90
18624;DHT22;9441;51.420;7.036;2022-10-16T03:49:14;14.80;99.90
18624;DHT22;9441;51.420;7.036;2022-10-16T03:50:16;14.80;99.90
18624;DHT22;9441;51.420;7.036;2022-10-16T03:51:17;14.70;99.90
18624;DHT22;9441;51.420;7.036;2022-10-16T03:52:19;14.70;99.90
18624;DHT22;9441;51.420;7.036;2022-10-16T03:53:20;14.70;99.90
18624;DHT22;9441;51.420;7.036;2022-10-16T03:54:22;14.70;99.90
18624;DHT22;9441;51.420;7.036;2022-10-16T03:55:24;14.70;99.90
18624;DHT22;9441;51.420;7.036;2022-10-16T03:56:26;14.80;99.90
18624;DHT22;9441;51.420;7.036;2022-10-16T03:57:27;14.80;99.90
18624;DHT22;9441;51.420;7.036;2022-10-16T03:58:29;14.70;99.90
18624;DHT22;9441;51.420;7.036;2022-10-16T03:59:30;14.80;99.90
18624;DHT22;9441;51.420;7.036;2022-10-16T04:00:32;14.80;99.90
18624;DHT22;9441;51.420;7.036;2022-10-16T04:01:33;14.80;99.90
18624;DHT22;9441;51.420;7.036;2022-10-16T04:02:36;14.70;99.90
18624;DHT22;9441;51.420;7.036;2022-10-16T04:03:37;14.60;99.90
18624;DHT22;9441;51.420;7.036;2022-10-16T04:04:39;14.70;99.90
18624;DHT22;9441;51.420;7.036;2022-10-16T04:05:41;14.70;99.90
18624;DHT22;9441;51.420;7.036;2022-10-16T04:06:43;14.60;99.90
18624;DHT22;9441;51.420;7.036;2022-10-16T04:07:44;14.60;99.90
18624;DHT22;9441;51.420;7.036;2022-10-16T04:08:46;14.70;99.90
18624;DHT22;9441;51.420;7.036;2022-10-16T04:09:47;14.70;99.90
18624;DHT22;9441;51.420;7.036;2022-10-16T04:10:49;14.60;99.90
18624;DHT22;9441;51.420;7.036;2022-10-16T04:11:50;14.60;99.90
18624;DHT22;9441;51.420;7.036;2022-10-16T04:12:52;14.60;99.90
18624;DHT22;9441;51.420;7.036;2022-10-16T04:13:55;14.60;99.90
18624;DHT22;9441;51.420;7.036;2022-10-16T04:14:57;14.60;99.90
18624;DHT22;9441;51.420;7.036;2022-10-16T04:15:58;14.60;99.90
18624;DHT22;9441;51.420;7.036;2022-10-16T04:17:00;14.50;99.90
18624;DHT22;9441;51.420;7.036;2022-10-16T04:18:02;14.50;99.90
18624;DHT22;9441;51.420;7.036;2022-10-16T04:19:05;14.50;99.90
18624;DHT22;9441;51.420;7.036;2022-10-16T04:20:06;14.50;99.90
18624;DHT22;9441;51.420;7.036;2022-10-16T04:21:08;14.50;99.90
18624;DHT22;9441;51.420;7.036;2022-10-16T04:22:09;14.40;99.90
18624;DHT22;9441;51.420;7.036;2022-10-16T04:23:12;14.40;99.90
18624;DHT22;9441;51.420;7.036;2022-10-16T04:24:14;14.50;99.90
18624;DHT22;9441;51.420;7.036;2022-10-16T04:25:15;14.50;99.90
18624;DHT22;9441;51.420;7.036;2022-10-16T04:26:17;14.50;99.90
18624;DHT22;9441;51.420;7.036;2022-10-16T04:27:18;14.50;99.90
18624;DHT22;9441;51.420;7.036;2022-10-16T04:28:20;14.50;99.90
18624;DHT22;9441;51.420;7.036;2022-10-16T04:29:21;14.50;99.90
18624;DHT22;9441;51.420;7.036;2022-10-16T04:30:23;14.40;99.90
18624;DHT22;9441;51.420;7.036;2022-10-16T04:31:24;14.50;99.90
18624;DHT22;9441;51.420;7.036;2022-10-16T04:32:27;14.50;99.90
18624;DHT22;9441;51.420;7.036;2022-10-16T04:33:29;14.50;99.90
18624;DHT22;9441;51.420;7.036;2022-10-16T04:34:31;14.50;99.90
18624;DHT22;9441;51.420;7.036;2022-10-16T04:35:32;14.50;99.90
18624;DHT22;9441;51.420;7.036;2022-10-16T04:36:34;14.50;99.90
18624;DHT22;9441;51.420;7.036;2022-10-16T04:37:35;14.50;99.90
18624;DHT22;9441;51.420;7.036;2022-10-16T04:38:47;14.50;99.90
18624;DHT22;9441;51.420;7.036;2022-10-16T04:40:36;14.50;99.90
18624;DHT22;9441;51.420;7.036;2022-10-16T04:42:00;14.50;99.90
18624;DHT22;9441;51.420;7.036;2022-10-16T04:43:01;14.40;99.90
18624;DHT22;9441;51.420;7.036;2022-10-16T04:44:03;14.30;99.90
18624;DHT22;9441;51.420;7.036;2022-10-16T04:45:06;14.40;99.90
18624;DHT22;9441;51.420;7.036;2022-10-16T04:46:08;14.40;99.90
18624;DHT22;9441;51.420;7.036;2022-10-16T04:47:10;14.50;99.90
18624;DHT22;9441;51.420;7.036;2022-10-16T04:48:13;14.50;99.90
18624;DHT22;9441;51.420;7.036;2022-10-16T04:49:15;14.50;99.90
18624;DHT22;9441;51.420;7.036;2022-10-16T04:50:17;14.40;99.90
18624;DHT22;9441;51.420;7.036;2022-10-16T04:51:35;14.50;99.90
18624;DHT22;9441;51.420;7.036;2022-10-16T04:52:37;14.40;99.90
18624;DHT22;9441;51.420;7.036;2022-10-16T04:53:38;14.50;99.90
18624;DHT22;9441;51.420;7.036;2022-10-16T04:54:40;14.40;99.90
18624;DHT22;9441;51.420;7.036;2022-10-16T04:55:41;14.50;99.90
18624;DHT22;9441;51.420;7.036;2022-10-16T04:56:44;14.40;99.90
18624;DHT22;9441;51.420;7.036;2022-10-16T04:57:48;14.40;99.90
18624;DHT22;9441;51.420;7.036;2022-10-16T04:58:50;14.40;99.90
18624;DHT22;9441;51.420;7.036;2022-10-16T04:59:51;14.40;99.90
18624;DHT22;9441;51.420;7.036;2022-10-16T05:00:53;14.50;99.90
18624;DHT22;9441;51.420;7.036;2022-10-16T05:01:54;14.40;99.90
18624;DHT22;9441;51.420;7.036;2022-10-16T05:02:56;14.50;99.90
18624;DHT22;9441;51.420;7.036;2022-10-16T05:03:58;14.40;99.90
18624;DHT22;9441;51.420;7.036;2022-10-16T05:05:01;14.50;99.90
18624;DHT22;9441;51.420;7.036;2022-10-16T05:06:05;14.50;99.90
18624;DHT22;9441;51.420;7.036;2022-10-16T05:07:07;14.40;99.90
18624;DHT22;9441;51.420;7.036;2022-10-16T05:08:08;14.50;99.90
18624;DHT22;9441;51.420;7.036;2022-10-16T05:09:10;14.50;99.90
18624;DHT22;9441;51.420;7.036;2022-10-16T05:10:11;14.50;99.90
18624;DHT22;9441;51.420;7.036;2022-10-16T05:11:13;14.50;99.90
18624;DHT22;9441;51.420;7.036;2022-10-16T05:12:14;14.50;99.90
18624;DHT22;9441;51.420;7.036;2022-10-16T05:13:16;14.50;99.90
18624;DHT22;9441;51.420;7.036;2022-10-16T05:14:18;14.40;99.90
18624;DHT22;9441;51.420;7.036;2022-10-16T05:15:20;14.40;99.90
18624;DHT22;9441;51.420;7.036;2022-10-16T05:16:21;14.50;99.90
18624;DHT22;9441;51.420;7.036;2022-10-16T05:17:23;14.50;99.90
18624;DHT22;9441;51.420;7.036;2022-10-16T05:18:24;14.50;99.90
18624;DHT22;9441;51.420;7.036;2022-10-16T05:19:26;14.50;99.90
18624;DHT22;9441;51.420;7.036;2022-10-16T05:20:29;14.50;99.90
18624;DHT22;9441;51.420;7.036;2022-10-16T05:21:31;14.50;99.90
18624;DHT22;9441;51.420;7.036;2022-10-16T05:22:32;14.50;99.90
18624;DHT22;9441;51.420;7.036;2022-10-16T05:23:34;14.50;99.90
18624;DHT22;9441;51.420;7.036;2022-10-16T05:24:35;14.50;99.90
18624;DHT22;9441;51.420;7.036;2022-10-16T05:25:37;14.50;99.90
18624;DHT22;9441;51.420;7.036;2022-10-16T05:26:38;14.50;99.90
18624;DHT22;9441;51.420;7.036;2022-10-16T05:27:40;14.50;99.90
18624;DHT22;9441;51.420;7.036;2022-10-16T05:28:42;14.50;99.90
18624;DHT22;9441;51.420;7.036;2022-10-16T05:29:43;14.50;99.90
18624;DHT22;9441;51.420;7.036;2022-10-16T05:30:45;14.50;99.90
18624;DHT22;9441;51.420;7.036;2022-10-16T05:31:46;14.50;99.90
18624;DHT22;9441;51.420;7.036;2022-10-16T05:32:49;14.50;99.90
18624;DHT22;9441;51.420;7.036;2022-10-16T05:33:50;14.50;99.90
18624;DHT22;9441;51.420;7.036;2022-10-16T05:34:52;14.50;99.90
18624;DHT22;9441;51.420;7.036;2022-10-16T05:35:54;14.50;99.90
18624;DHT22;9441;51.420;7.036;2022-10-16T05:36:56;14.50;99.90
18624;DHT22;9441;51.420;7.036;2022-10-16T05:37:57;14.40;99.90
18624;DHT22;9441;51.420;7.036;2022-10-16T05:38:59;14.50;99.90
18624;DHT22;9441;51.420;7.036;2022-10-16T05:40:00;14.50;99.90
18624;DHT22;9441;51.420;7.036;2022-10-16T05:41:05;14.50;99.90
18624;DHT22;9441;51.420;7.036;2022-10-16T05:42:06;14.50;99.90
18624;DHT22;9441;51.420;7.036;2022-10-16T05:43:08;14.50;99.90
18624;DHT22;9441;51.420;7.036;2022-10-16T05:44:10;14.50;99.90
18624;DHT22;9441;51.420;7.036;2022-10-16T05:45:12;14.50;99.90
18624;DHT22;9441;51.420;7.036;2022-10-16T05:46:14;14.40;99.90
18624;DHT22;9441;51.420;7.036;2022-10-16T05:47:16;14.50;99.90
18624;DHT22;9441;51.420;7.036;2022-10-16T05:48:17;14.50;99.90
18624;DHT22;9441;51.420;7.036;2022-10-16T05:49:19;14.50;99.90
18624;DHT22;9441;51.420;7.036;2022-10-16T05:50:20;14.50;99.90
18624;DHT22;9441;51.420;7.036;2022-10-16T05:51:24;14.40;99.90
18624;DHT22;9441;51.420;7.036;2022-10-16T05:52:26;14.40;99.90
18624;DHT22;9441;51.420;7.036;2022-10-16T05:53:28;14.40;99.90
18624;DHT22;9441;51.420;7.036;2022-10-16T05:54:29;14.40;99.90
18624;DHT22;9441;51.420;7.036;2022-10-16T05:55:31;14.50;99.90
18624;DHT22;9441;51.420;7.036;2022-10-16T05:56:32;14.50;99.90
18624;DHT22;9441;51.420;7.036;2022-10-16T05:57:34;14.50;99.90
18624;DHT22;9441;51.420;7.036;2022-10-16T05:58:37;14.50;99.90
18624;DHT22;9441;51.420;7.036;2022-10-16T05:59:41;14.50;99.90
18624;DHT22;9441;51.420;7.036;2022-10-16T06:00:42;14.50;99.90
18624;DHT22;9441;51.420;7.036;2022-10-16T06:01:43;14.50;99.90
18624;DHT22;9441;51.420;7.036;2022-10-16T06:02:45;14.50;99.90
18624;DHT22;9441;51.420;7.036;2022-10-16T06:03:47;14.50;99.90
18624;DHT22;9441;51.420;7.036;2022-10-16T06:04:48;14.60;99.90
18624;DHT22;9441;51.420;7.036;2022-10-16T06:05:50;14.60;99.90
18624;DHT22;9441;51.420;7.036;2022-10-16T06:06:52;14.60;99.90
18624;DHT22;9441;51.420;7.036;2022-10-16T06:07:54;14.60;99.90
18624;DHT22;9441;51.420;7.036;2022-10-16T06:08:56;14.60;99.90
18624;DHT22;9441;51.420;7.036;2022-10-16T06:09:58;14.60;99.90
18624;DHT22;9441;51.420;7.036;2022-10-16T06:11:02;14.60;99.90
18624;DHT22;9441;51.420;7.036;2022-10-16T06:12:05;14.60;99.90
18624;DHT22;9441;51.420;7.036;2022-10-16T06:13:06;14.60;99.90
18624;DHT22;9441;51.420;7.036;2022-10-16T06:14:08;14.60;99.90
18624;DHT22;9441;51.420;7.036;2022-10-16T06:15:11;14.60;99.90
18624;DHT22;9441;51.420;7.036;2022-10-16T06:16:13;14.70;99.90
18624;DHT22;9441;51.420;7.036;2022-10-16T06:17:15;14.60;99.90
18624;DHT22;9441;51.420;7.036;2022-10-16T06:18:17;14.60;99.90
18624;DHT22;9441;51.420;7.036;2022-10-16T06:19:18;14.60;99.90
18624;DHT22;9441;51.420;7.036;2022-10-16T06:20:20;14.60;99.90
18624;DHT22;9441;51.420;7.036;2022-10-16T06:21:22;14.60;99.90
18624;DHT22;9441;51.420;7.036;2022-10-16T06:22:26;14.60;99.90
18624;DHT22;9441;51.420;7.036;2022-10-16T06:23:28;14.60;99.90
18624;DHT22;9441;51.420;7.036;2022-10-16T06:24:30;14.60;99.90
18624;DHT22;9441;51.420;7.036;2022-10-16T06:25:32;14.70;99.90
18624;DHT22;9441;51.420;7.036;2022-10-16T06:26:33;14.70;99.90
18624;DHT22;9441;51.420;7.036;2022-10-16T06:27:35;14.60;99.90
18624;DHT22;9441;51.420;7.036;2022-10-16T06:28:36;14.60;99.90
18624;DHT22;9441;51.420;7.036;2022-10-16T06:29:38;14.70;99.90
18624;DHT22;9441;51.420;7.036;2022-10-16T06:30:40;14.70;99.90
18624;DHT22;9441;51.420;7.036;2022-10-16T06:31:43;14.70;99.90
18624;DHT22;9441;51.420;7.036;2022-10-16T06:32:44;14.70;99.90
18624;DHT22;9441;51.420;7.036;2022-10-16T06:33:50;14.70;99.90
18624;DHT22;9441;51.420;7.036;2022-10-16T06:34:51;14.70;99.90
18624;DHT22;9441;51.420;7.036;2022-10-16T06:35:53;14.70;99.90
18624;DHT22;9441;51.420;7.036;2022-10-16T06:36:54;14.70;99.90
18624;DHT22;9441;51.420;7.036;2022-10-16T06:37:58;14.70;99.90
18624;DHT22;9441;51.420;7.036;2022-10-16T06:38:59;14.70;99.90
18624;DHT22;9441;51.420;7.036;2022-10-16T06:40:01;14.70;99.90
18624;DHT22;9441;51.420;7.036;2022-10-16T06:41:06;14.70;99.90
18624;DHT22;9441;51.420;7.036;2022-10-16T06:42:08;14.80;99.90
18624;DHT22;9441;51.420;7.036;2022-10-16T06:43:10;14.80;99.90
18624;DHT22;9441;51.420;7.036;2022-10-16T06:44:12;14.80;99.90
18624;DHT22;9441;51.420;7.036;2022-10-16T06:45:13;14.80;99.90
18624;DHT22;9441;51.420;7.036;2022-10-16T06:46:17;14.80;99.90
18624;DHT22;9441;51.420;7.036;2022-10-16T06:47:18;14.80;99.90